Time;durP1;ratioP1;P1;durP2;ratioP2;P2;SDS_P1;SDS_P2;PMS_P1;PMS_P2;Temp;Humidity;BMP_temperature;BMP_pressure;BME280_temperature;BME280_humidity;BME280_pressure;Samples;Min_cycle;Max_cycle;Signal;HPM_P1;HPM_P2
2021/08/05 00:02:15;;;;;;;12.93;4.70;;;;;;;24.99;nan;94855.84;4949850;28;20113;-71
2021/08/05 00:04:41;;;;;;;11.23;4.72;;;;;;;24.90;nan;94853.50;4967588;28;20556;-71
2021/08/05 00:07:06;;;;;;;10.35;4.53;;;;;;;24.93;nan;94847.00;4950479;28;20576;-71
2021/08/05 00:09:32;;;;;;;9.00;4.63;;;;;;;24.89;nan;94852.00;4967756;28;20026;-71
2021/08/05 00:11:58;;;;;;;8.93;3.92;;;;;;;24.83;nan;94842.44;4965821;28;20018;-71
2021/08/05 00:14:23;;;;;;;10.65;4.43;;;;;;;24.85;nan;94848.84;4980277;28;20029;-71
2021/08/05 00:16:49;;;;;;;9.38;4.47;;;;;;;24.82;nan;94851.16;5006225;28;20091;-72
2021/08/05 00:19:14;;;;;;;8.82;4.22;;;;;;;24.82;nan;94841.69;4991274;28;20095;-72
2021/08/05 00:21:40;;;;;;;8.57;4.55;;;;;;;24.79;nan;94841.28;4986265;28;20404;-72
2021/08/05 00:24:05;;;;;;;12.25;4.30;;;;;;;24.75;nan;94840.84;4968827;28;20030;-71
2021/08/05 00:26:31;;;;;;;9.30;4.22;;;;;;;24.74;nan;94850.28;4985816;28;20034;-72
2021/08/05 00:28:56;;;;;;;7.43;3.65;;;;;;;24.75;nan;94849.78;4986826;28;20034;-72
2021/08/05 00:31:21;;;;;;;8.25;4.15;;;;;;;24.68;nan;94842.22;4969052;28;20026;-72
2021/08/05 00:33:47;;;;;;;8.55;3.80;;;;;;;24.66;nan;94855.63;4986749;28;20033;-71
2021/08/05 00:36:12;;;;;;;10.60;4.60;;;;;;;24.63;nan;94850.47;4984852;28;20110;-72
2021/08/05 00:38:38;;;;;;;9.77;4.65;;;;;;;24.62;nan;94859.91;4986698;28;20038;-71
2021/08/05 00:41:03;;;;;;;10.60;4.88;;;;;;;24.59;nan;94856.25;4985876;28;20038;-71
2021/08/05 00:43:29;;;;;;;9.13;4.30;;;;;;;24.59;nan;94855.53;4971934;28;20026;-72
2021/08/05 00:45:54;;;;;;;9.95;4.70;;;;;;;24.58;nan;94854.03;4967454;28;20111;-72
2021/08/05 00:48:20;;;;;;;8.98;4.20;;;;;;;24.57;nan;94858.03;4979153;28;20493;-71
2021/08/05 00:50:46;;;;;;;8.88;4.28;;;;;;;24.56;nan;94856.56;4986097;28;20026;-71
2021/08/05 00:53:12;;;;;;;8.40;4.43;;;;;;;24.55;nan;94855.09;4967424;28;20494;-71
2021/08/05 00:55:37;;;;;;;10.93;3.80;;;;;;;24.49;nan;94857.16;4986625;28;20033;-71
2021/08/05 00:58:02;;;;;;;12.63;4.28;;;;;;;24.50;nan;94853.91;4985681;28;20038;-71
2021/08/05 01:00:28;;;;;;;12.50;4.45;;;;;;;24.52;nan;94856.13;4986846;28;20045;-71
2021/08/05 01:02:57;;;;;;;11.57;4.45;;;;;;;24.51;nan;94860.88;4967421;28;20026;-71
2021/08/05 01:05:23;;;;;;;7.97;4.03;;;;;;;24.49;nan;94863.34;4953218;28;20516;-71
2021/08/05 01:07:53;;;;;;;12.52;4.00;;;;;;;24.48;nan;94855.69;4952117;28;20022;-71
2021/08/05 01:10:26;;;;;;;10.95;4.38;;;;;;;24.47;nan;94848.78;4969107;28;20481;-71
2021/08/05 01:13:11;;;;;;;9.82;4.50;;;;;;;24.45;nan;94851.25;4968204;28;20041;-72
2021/08/05 01:15:36;;;;;;;12.52;4.22;;;;;;;24.40;nan;94844.63;4954680;28;20037;-71
2021/08/05 01:18:10;;;;;;;9.63;4.47;;;;;;;24.34;nan;94845.97;4963773;28;20035;-71
2021/08/05 01:20:36;;;;;;;8.40;4.30;;;;;;;24.30;nan;94861.88;4948861;28;20089;-72
2021/08/05 01:23:37;;;;;;;9.73;4.53;;;;;;;24.33;nan;94849.97;4948678;28;20620;-71
2021/08/05 01:26:11;;;;;;;10.65;4.40;;;;;;;24.34;nan;94850.72;4966288;28;20034;-71
2021/08/05 01:28:37;;;;;;;10.10;4.35;;;;;;;24.30;nan;94840.06;4966954;28;20523;-72
2021/08/05 01:31:03;;;;;;;13.70;4.10;;;;;;;24.29;nan;94849.50;4951948;28;20482;-71
2021/08/05 01:33:30;;;;;;;11.13;4.68;;;;;;;24.23;nan;94824.28;4951276;28;20072;-72
2021/08/05 01:35:56;;;;;;;10.82;4.57;;;;;;;24.27;nan;94830.16;4972409;28;20444;-71
2021/08/05 01:38:21;;;;;;;9.15;4.47;;;;;;;24.22;nan;94816.63;4972212;28;20436;-71
2021/08/05 01:40:47;;;;;;;10.52;4.28;;;;;;;24.24;nan;94825.75;4972604;28;20568;-72
2021/08/05 01:43:12;;;;;;;9.57;4.40;;;;;;;24.24;nan;94820.28;4988755;28;20034;-72
2021/08/05 01:45:38;;;;;;;7.85;3.78;;;;;;;24.22;nan;94827.53;4956322;28;20037;-72
2021/08/05 01:48:04;;;;;;;11.25;4.32;;;;;;;24.18;nan;94821.63;4959645;28;20486;-71
2021/08/05 01:50:30;;;;;;;7.75;4.05;;;;;;;24.17;nan;94831.81;4953289;28;20035;-72
2021/08/05 01:52:55;;;;;;;8.45;4.05;;;;;;;24.11;nan;94823.00;4968753;28;20041;-71
2021/08/05 01:55:21;;;;;;;10.02;4.35;;;;;;;24.11;nan;94817.53;4953419;28;20058;-71
2021/08/05 01:57:46;;;;;;;9.07;4.20;;;;;;;24.04;nan;94809.94;4951758;28;20015;-71
2021/08/05 02:00:12;;;;;;;8.80;4.47;;;;;;;24.09;nan;94806.38;4970298;28;20029;-71
2021/08/05 02:02:38;;;;;;;8.63;4.10;;;;;;;24.11;nan;94812.06;4969443;28;20034;-71
2021/08/05 02:05:07;;;;;;;9.68;4.63;;;;;;;24.08;nan;94802.19;4969997;28;20573;-71
2021/08/05 02:07:44;;;;;;;8.75;4.38;;;;;;;24.11;nan;94790.25;4952955;28;20029;-71
2021/08/05 02:10:18;;;;;;;10.25;4.72;;;;;;;24.04;nan;94801.75;4952772;28;20038;-71
2021/08/05 02:12:46;;;;;;;11.00;4.78;;;;;;;24.01;nan;94802.78;4951994;28;20082;-72
2021/08/05 02:15:12;;;;;;;12.50;4.95;;;;;;;23.96;nan;94789.97;4970213;28;20026;-71
2021/08/05 02:17:39;;;;;;;9.45;4.50;;;;;;;23.95;nan;94815.78;4943841;28;20026;-72
2021/08/05 02:20:06;;;;;;;9.95;4.75;;;;;;;23.88;nan;94815.63;4970790;28;20031;-71
2021/08/05 02:22:32;;;;;;;8.98;4.05;;;;;;;23.87;nan;94809.44;4969517;28;20513;-71
2021/08/05 02:24:57;;;;;;;12.25;4.47;;;;;;;23.91;nan;94807.13;4971442;28;20033;-71
2021/08/05 02:27:23;;;;;;;7.53;4.10;;;;;;;23.86;nan;94806.50;4988317;28;20034;-71
2021/08/05 02:29:48;;;;;;;8.38;4.90;;;;;;;23.86;nan;94813.41;4971701;28;20031;-71
2021/08/05 02:32:13;;;;;;;10.40;4.13;;;;;;;23.80;nan;94808.56;4960557;28;20034;-71
2021/08/05 02:34:39;;;;;;;9.10;4.60;;;;;;;23.78;nan;94800.16;4988706;28;20033;-71
2021/08/05 02:37:04;;;;;;;10.95;3.92;;;;;;;23.77;nan;94804.16;4953851;28;20045;-71
2021/08/05 02:39:30;;;;;;;7.55;4.30;;;;;;;23.73;nan;94803.69;4989342;28;20670;-72
2021/08/05 02:41:56;;;;;;;7.55;4.03;;;;;;;23.77;nan;94804.16;4987811;28;20030;-71
2021/08/05 02:44:21;;;;;;;9.13;4.38;;;;;;;23.72;nan;94802.22;4967477;28;20026;-72
2021/08/05 02:46:47;;;;;;;11.30;4.90;;;;;;;23.72;nan;94802.97;4934924;28;20038;-72
2021/08/05 02:49:14;;;;;;;10.45;3.95;;;;;;;23.72;nan;94807.66;4950808;28;20279;-71
2021/08/05 02:51:40;;;;;;;8.57;4.57;;;;;;;23.72;nan;94818.56;4974464;28;20018;-71
2021/08/05 02:54:05;;;;;;;9.90;4.47;;;;;;;23.72;nan;94802.22;4971126;28;20026;-71
2021/08/05 02:56:31;;;;;;;6.80;4.03;;;;;;;23.71;nan;94811.66;4966168;28;20035;-71
2021/08/05 02:58:56;;;;;;;10.02;4.38;;;;;;;23.69;nan;94797.78;4951642;28;20418;-72
2021/08/05 03:01:22;;;;;;;8.93;4.38;;;;;;;23.67;nan;94800.31;4966982;28;20034;-71
2021/08/05 03:03:51;;;;;;;11.65;4.80;;;;;;;23.65;nan;94808.28;4968933;28;20051;-71
2021/08/05 03:06:20;;;;;;;9.27;4.00;;;;;;;23.65;nan;94811.00;4969080;28;20067;-71
2021/08/05 03:08:46;;;;;;;6.93;4.60;;;;;;;23.62;nan;94809.28;4969134;28;20666;-72
2021/08/05 03:11:11;;;;;;;8.23;4.15;;;;;;;23.61;nan;94813.25;4968207;28;20057;-71
2021/08/05 03:13:37;;;;;;;8.88;4.60;;;;;;;23.59;nan;94804.84;4988346;28;20038;-71
2021/08/05 03:16:02;;;;;;;8.02;4.20;;;;;;;23.61;nan;94802.34;4986302;28;20041;-71
2021/08/05 03:18:28;;;;;;;12.48;5.22;;;;;;;23.56;nan;94789.53;4987840;28;20030;-72
2021/08/05 03:20:53;;;;;;;10.20;4.82;;;;;;;23.63;nan;94794.38;4971196;28;20022;-71
2021/08/05 03:23:18;;;;;;;8.57;4.40;;;;;;;23.60;nan;94800.88;4966327;28;20056;-71
2021/08/05 03:25:44;;;;;;;9.70;4.85;;;;;;;23.59;nan;94793.97;4963593;28;20417;-71
2021/08/05 03:28:09;;;;;;;28.85;7.13;;;;;;;23.61;nan;94781.25;4967467;28;20031;-71
2021/08/05 03:30:35;;;;;;;24.10;5.70;;;;;;;23.61;nan;94786.00;4967500;28;20034;-71
2021/08/05 03:33:00;;;;;;;11.77;4.68;;;;;;;23.51;nan;94776.69;4984120;28;20037;-72
2021/08/05 03:35:28;;;;;;;10.75;4.93;;;;;;;23.52;nan;94794.53;4970201;28;20029;-71
2021/08/05 03:37:54;;;;;;;9.55;4.97;;;;;;;23.53;nan;94790.56;4987386;28;20041;-71
2021/08/05 03:40:19;;;;;;;9.88;4.55;;;;;;;23.52;nan;94789.09;4987931;28;20042;-71
2021/08/05 03:42:45;;;;;;;8.40;4.32;;;;;;;23.51;nan;94782.16;4972817;28;20038;-71
2021/08/05 03:45:10;;;;;;;8.55;4.10;;;;;;;23.53;nan;94780.38;4968235;28;20031;-71
2021/08/05 03:47:36;;;;;;;9.38;4.95;;;;;;;23.51;nan;94787.59;4967369;28;20038;-71
2021/08/05 03:50:02;;;;;;;11.75;4.57;;;;;;;23.50;nan;94775.25;4968321;28;20026;-71
2021/08/05 03:52:28;;;;;;;8.25;4.13;;;;;;;23.49;nan;94773.75;4978562;28;20026;-71
2021/08/05 03:54:53;;;;;;;10.15;5.60;;;;;;;23.46;nan;94782.97;4987674;28;20027;-71
2021/08/05 03:57:18;;;;;;;9.13;5.32;;;;;;;23.41;nan;94783.78;4984878;28;20057;-71
2021/08/05 03:59:44;;;;;;;16.08;6.00;;;;;;;23.39;nan;94781.56;4987352;28;20033;-71
2021/08/05 04:02:09;;;;;;;9.25;4.47;;;;;;;23.40;nan;94782.28;4970227;28;20035;-71
2021/08/05 04:04:35;;;;;;;9.93;4.75;;;;;;;23.41;nan;94764.72;4967660;28;20046;-71
2021/08/05 04:07:00;;;;;;;10.63;4.90;;;;;;;23.44;nan;94769.13;4967448;28;20042;-71
2021/08/05 04:09:26;;;;;;;12.52;5.05;;;;;;;23.42;nan;94779.78;4968036;28;20042;-71
2021/08/05 04:11:51;;;;;;;9.98;5.35;;;;;;;23.46;nan;94759.16;4970952;28;20504;-71
2021/08/05 04:14:16;;;;;;;10.48;5.07;;;;;;;23.46;nan;94785.69;4987426;28;20553;-71
2021/08/05 04:16:42;;;;;;;15.02;5.43;;;;;;;23.35;nan;94758.59;4986532;28;20286;-70
2021/08/05 04:19:07;;;;;;;10.52;5.30;;;;;;;23.39;nan;94776.13;4986379;28;20110;-70
2021/08/05 04:21:33;;;;;;;12.25;5.15;;;;;;;23.39;nan;94764.47;4964862;28;20034;-70
2021/08/05 04:23:58;;;;;;;11.38;5.30;;;;;;;23.44;nan;94771.84;4967572;28;20461;-71
2021/08/05 04:26:24;;;;;;;14.25;6.03;;;;;;;23.46;nan;94769.34;4967632;28;20275;-70
2021/08/05 04:28:49;;;;;;;11.30;5.30;;;;;;;23.43;nan;94776.53;4987063;28;20018;-72
2021/08/05 04:31:14;;;;;;;12.07;5.30;;;;;;;23.45;nan;94767.84;4968212;28;20027;-71
2021/08/05 04:33:40;;;;;;;14.82;5.22;;;;;;;23.50;nan;94761.63;4967237;28;20022;-68
2021/08/05 04:36:05;;;;;;;13.48;5.68;;;;;;;23.60;nan;94768.16;4967268;28;20023;-71
2021/08/05 04:38:31;;;;;;;18.77;8.55;;;;;;;23.67;nan;94757.41;4966920;28;20459;-72
2021/08/05 04:40:56;;;;;;;13.32;6.50;;;;;;;23.76;nan;94753.59;4967512;28;20019;-71
2021/08/05 04:43:22;;;;;;;11.77;5.90;;;;;;;23.85;nan;94755.94;4973698;28;20462;-72
2021/08/05 04:45:47;;;;;;;13.15;5.55;;;;;;;23.97;nan;94752.53;4986277;28;20025;-75
2021/08/05 04:48:13;;;;;;;11.02;5.13;;;;;;;24.11;nan;94762.97;4968923;28;20017;-74
2021/08/05 04:50:39;;;;;;;10.80;5.53;;;;;;;24.22;nan;94762.78;4967119;28;20493;-73
2021/08/05 04:53:05;;;;;;;12.48;5.40;;;;;;;24.33;nan;94748.97;4963852;28;20110;-72
2021/08/05 04:55:30;;;;;;;12.15;5.53;;;;;;;24.47;nan;94766.88;4978608;28;20034;-72
2021/08/05 04:58:00;;;;;;;12.43;6.03;;;;;;;24.61;nan;94760.16;4967673;28;20726;-70
2021/08/05 05:00:29;;;;;;;15.90;5.78;;;;;;;24.74;nan;94762.91;4985841;28;20118;-73
2021/08/05 05:02:54;;;;;;;14.68;6.30;;;;;;;24.87;nan;94778.06;4972780;28;20041;-73
2021/08/05 05:05:21;;;;;;;13.93;5.50;;;;;;;24.97;nan;94754.50;4966448;28;20034;-70
2021/08/05 05:07:46;;;;;;;14.77;5.75;;;;;;;25.11;nan;94769.69;4976937;28;20023;-72
2021/08/05 05:10:12;;;;;;;11.88;5.38;;;;;;;25.24;nan;94749.81;4972892;28;20072;-71
2021/08/05 05:12:38;;;;;;;17.13;6.15;;;;;;;25.38;nan;94760.16;4975299;28;20026;-71
2021/08/05 05:15:04;;;;;;;10.85;6.40;;;;;;;25.50;nan;94755.94;4975432;28;20588;-72
2021/08/05 05:17:29;;;;;;;14.40;6.38;;;;;;;25.64;nan;94746.47;4967448;28;20029;-71
2021/08/05 05:19:54;;;;;;;11.75;5.95;;;;;;;25.76;nan;94753.19;4965826;28;20023;-71
2021/08/05 05:22:20;;;;;;;11.68;6.30;;;;;;;25.91;nan;94734.91;4966319;28;20022;-71
2021/08/05 05:24:45;;;;;;;16.63;8.50;;;;;;;26.04;nan;94748.56;4968461;28;20574;-71
2021/08/05 05:27:11;;;;;;;14.00;5.93;;;;;;;26.17;nan;94746.47;4975473;28;20041;-70
2021/08/05 05:29:37;;;;;;;13.50;5.78;;;;;;;26.25;nan;94741.06;4972043;28;20027;-71
2021/08/05 05:32:03;;;;;;;13.13;5.85;;;;;;;26.41;nan;94743.44;4968325;28;20046;-70
2021/08/05 05:34:29;;;;;;;11.63;5.35;;;;;;;26.52;nan;94743.91;4986762;28;20054;-71
2021/08/05 05:36:54;;;;;;;16.70;5.95;;;;;;;26.62;nan;94752.34;4987249;28;20072;-68
2021/08/05 05:39:19;;;;;;;11.40;5.10;;;;;;;26.71;nan;94746.41;4969777;28;20025;-71
2021/08/05 05:41:45;;;;;;;14.77;5.38;;;;;;;26.77;nan;94737.50;4974976;28;20046;-69
2021/08/05 05:44:10;;;;;;;12.68;5.45;;;;;;;26.91;nan;94730.66;4968850;28;20457;-68
2021/08/05 05:46:36;;;;;;;14.02;6.15;;;;;;;27.02;nan;94741.31;4966864;28;20038;-70
2021/08/05 05:49:01;;;;;;;12.68;5.28;;;;;;;27.13;nan;94724.59;4966858;28;20022;-67
2021/08/05 05:51:27;;;;;;;14.25;5.22;;;;;;;27.21;nan;94736.31;4966422;28;20713;-66
2021/08/05 05:53:52;;;;;;;13.10;6.47;;;;;;;27.25;nan;94736.72;4966280;28;20026;-73
2021/08/05 05:56:17;;;;;;;12.48;6.85;;;;;;;27.31;nan;94729.78;4966315;28;20023;-69
2021/08/05 05:58:43;;;;;;;12.82;6.13;;;;;;;27.39;nan;94724.34;4965420;28;20086;-71
2021/08/05 06:01:08;;;;;;;14.10;6.35;;;;;;;27.38;nan;94715.38;4980265;28;20023;-72
2021/08/05 06:03:34;;;;;;;11.38;6.07;;;;;;;27.39;nan;94713.38;4984073;28;20046;-72
2021/08/05 06:05:59;;;;;;;18.13;6.38;;;;;;;27.38;nan;94706.41;4958703;28;20043;-72
2021/08/05 06:08:24;;;;;;;14.73;6.65;;;;;;;27.40;nan;94703.88;4985312;28;20081;-71
2021/08/05 06:10:50;;;;;;;11.88;6.68;;;;;;;27.45;nan;94705.72;4985754;28;20088;-71
2021/08/05 06:13:15;;;;;;;14.73;7.18;;;;;;;27.49;nan;94700.63;4985522;28;20026;-71
2021/08/05 06:15:41;;;;;;;15.40;6.95;;;;;;;27.52;nan;94694.03;4985098;28;20022;-71
2021/08/05 06:18:06;;;;;;;13.27;6.18;;;;;;;27.55;nan;94692.94;4985803;28;20023;-76
2021/08/05 06:20:31;;;;;;;11.95;6.45;;;;;;;27.63;nan;94701.97;4972880;28;20049;-71
2021/08/05 06:22:57;;;;;;;13.05;6.72;;;;;;;27.65;nan;94696.66;4974252;28;20489;-72
2021/08/05 06:25:32;;;;;;;13.15;6.63;;;;;;;27.70;nan;94698.47;4966619;28;20026;-71
2021/08/05 06:27:57;;;;;;;15.50;6.82;;;;;;;27.76;nan;94686.81;4966660;28;20038;-71
2021/08/05 06:30:22;;;;;;;16.85;6.88;;;;;;;27.88;nan;94682.44;4984934;28;20080;-71
2021/08/05 06:32:50;;;;;;;14.95;7.00;;;;;;;27.96;nan;94672.19;4986561;28;20026;-71
2021/08/05 06:35:15;;;;;;;16.90;7.47;;;;;;;28.09;nan;94674.78;4980630;28;20564;-70
2021/08/05 06:37:41;;;;;;;13.77;7.00;;;;;;;28.25;nan;94670.75;4980988;28;20043;-70
2021/08/05 06:40:07;;;;;;;13.75;6.20;;;;;;;28.36;nan;94673.16;4980577;28;20042;-71
2021/08/05 06:42:33;;;;;;;14.52;6.05;;;;;;;28.49;nan;94656.47;4984201;28;20077;-70
2021/08/05 06:44:58;;;;;;;14.65;7.13;;;;;;;28.57;nan;94657.19;4983335;28;20061;-71
2021/08/05 06:47:24;;;;;;;12.98;5.70;;;;;;;28.65;nan;94652.41;4975559;28;20030;-71
2021/08/05 06:49:49;;;;;;;11.75;6.70;;;;;;;28.72;nan;94668.19;4970820;28;20023;-71
2021/08/05 06:52:15;;;;;;;11.63;6.18;;;;;;;28.73;nan;94665.63;4977062;28;20049;-71
2021/08/05 06:54:40;;;;;;;11.25;5.90;;;;;;;28.76;nan;94653.53;4957942;28;20525;-71
2021/08/05 06:57:06;;;;;;;12.80;6.18;;;;;;;28.78;nan;94656.44;4968402;28;20058;-70
2021/08/05 06:59:31;;;;;;;11.68;6.03;;;;;;;28.78;nan;94650.94;4969323;28;20565;-71
2021/08/05 07:01:57;;;;;;;11.48;5.80;;;;;;;28.72;nan;94647.66;4968998;28;20592;-70
2021/08/05 07:04:22;;;;;;;10.07;5.57;;;;;;;28.73;nan;94648.41;4962984;28;20054;-70
2021/08/05 07:06:48;;;;;;;11.57;5.75;;;;;;;28.71;nan;94655.72;4970493;28;20054;-70
2021/08/05 07:09:13;;;;;;;13.68;5.47;;;;;;;28.71;nan;94650.22;4968569;28;20041;-71
2021/08/05 07:11:39;;;;;;;10.45;5.20;;;;;;;28.70;nan;94654.25;4976128;28;20019;-71
2021/08/05 07:14:05;;;;;;;11.73;5.45;;;;;;;28.69;nan;94644.56;4982911;28;20022;-72
2021/08/05 07:16:30;;;;;;;11.30;5.18;;;;;;;28.65;nan;94652.41;4972186;28;20038;-71
2021/08/05 07:18:56;;;;;;;11.57;5.13;;;;;;;28.65;nan;94652.41;4970233;28;20033;-72
2021/08/05 07:21:22;;;;;;;9.63;5.75;;;;;;;28.64;nan;94650.94;4964961;28;20034;-71
2021/08/05 07:23:47;;;;;;;9.27;5.35;;;;;;;28.60;nan;94636.88;4969376;28;20034;-71
2021/08/05 07:26:13;;;;;;;10.05;5.45;;;;;;;28.61;nan;94635.56;4968155;28;20022;-71
2021/08/05 07:28:39;;;;;;;11.85;5.85;;;;;;;28.60;nan;94653.34;4987626;28;20034;-72
2021/08/05 07:31:04;;;;;;;9.93;5.00;;;;;;;28.59;nan;94638.13;4974808;28;20498;-71
2021/08/05 07:33:30;;;;;;;7.10;4.72;;;;;;;28.57;nan;94635.22;4982409;28;20026;-70
2021/08/05 07:35:56;;;;;;;8.43;5.25;;;;;;;28.52;nan;94627.88;4987364;28;20023;-72
2021/08/05 07:38:23;;;;;;;8.90;5.15;;;;;;;28.50;nan;94636.69;4974816;28;20041;-71
2021/08/05 07:40:48;;;;;;;9.82;5.57;;;;;;;28.51;nan;94626.44;4963668;28;20524;-71
2021/08/05 07:43:14;;;;;;;8.35;5.50;;;;;;;28.49;nan;94628.97;4985089;28;20030;-71
2021/08/05 07:45:39;;;;;;;10.10;5.20;;;;;;;28.47;nan;94623.31;4987261;28;20370;-71
2021/08/05 07:48:05;;;;;;;9.85;5.20;;;;;;;28.45;nan;94615.63;4986984;28;20030;-71
2021/08/05 07:50:30;;;;;;;8.75;4.93;;;;;;;28.44;nan;94627.16;4986318;28;20054;-71
2021/08/05 07:52:56;;;;;;;7.95;4.97;;;;;;;28.43;nan;94611.97;4984286;28;20034;-72
2021/08/05 07:55:21;;;;;;;10.00;5.50;;;;;;;28.43;nan;94606.47;4987016;28;20141;-72
2021/08/05 07:57:47;;;;;;;9.55;5.60;;;;;;;28.41;nan;94617.28;4985638;28;20034;-71
2021/08/05 08:00:13;;;;;;;8.40;5.32;;;;;;;28.39;nan;94626.06;4986794;28;20038;-71
2021/08/05 08:02:39;;;;;;;7.30;5.03;;;;;;;28.40;nan;94610.31;4968772;28;20065;-71
2021/08/05 08:05:05;;;;;;;11.23;5.72;;;;;;;28.40;nan;94610.31;4986736;28;20499;-71
2021/08/05 08:07:38;;;;;;;8.02;4.80;;;;;;;28.39;nan;94603.38;4986966;28;20122;-71
2021/08/05 08:10:04;;;;;;;9.07;5.22;;;;;;;28.37;nan;94595.69;4983185;28;20026;-71
2021/08/05 08:12:29;;;;;;;9.00;5.25;;;;;;;28.34;nan;94607.03;4987165;28;20030;-71
2021/08/05 08:14:55;;;;;;;8.32;5.25;;;;;;;28.36;nan;94610.69;4969126;28;20591;-70
2021/08/05 08:17:20;;;;;;;9.10;5.65;;;;;;;28.34;nan;94596.03;4969806;28;20072;-71
2021/08/05 08:19:46;;;;;;;9.02;5.60;;;;;;;28.31;nan;94602.63;4985579;28;20548;-71
2021/08/05 08:22:11;;;;;;;9.73;5.53;;;;;;;28.31;nan;94591.66;4986309;28;20128;-72
2021/08/05 08:24:37;;;;;;;10.35;5.78;;;;;;;28.28;nan;94581.75;4986545;28;20033;-71
2021/08/05 08:27:03;;;;;;;10.70;6.22;;;;;;;28.28;nan;94588.00;4969625;28;20482;-71
2021/08/05 08:29:28;;;;;;;9.68;5.55;;;;;;;28.26;nan;94578.84;4974789;28;20509;-72
2021/08/05 08:31:53;;;;;;;10.48;6.43;;;;;;;28.24;nan;94581.44;4976994;28;20026;-72
2021/08/05 08:34:19;;;;;;;7.97;5.78;;;;;;;28.23;nan;94566.22;4968831;28;20033;-71
2021/08/05 08:36:45;;;;;;;10.00;5.60;;;;;;;28.22;nan;94567.53;4986951;28;20088;-71
2021/08/05 08:39:11;;;;;;;9.65;5.43;;;;;;;28.21;nan;94560.56;4986389;28;20117;-71
2021/08/05 08:41:38;;;;;;;10.25;5.18;;;;;;;28.25;nan;94571.88;4968511;28;20035;-72
2021/08/05 08:44:04;;;;;;;10.05;6.00;;;;;;;28.24;nan;94559.44;4977007;28;20457;-71
2021/08/05 08:46:34;;;;;;;8.98;6.28;;;;;;;28.24;nan;94553.97;4979597;28;20053;-72
2021/08/05 08:48:59;;;;;;;8.90;5.57;;;;;;;28.20;nan;94559.09;4950227;28;20498;-72
2021/08/05 08:51:25;;;;;;;11.35;5.32;;;;;;;28.24;nan;94559.44;4961034;28;20037;-71
2021/08/05 08:53:51;;;;;;;9.70;5.47;;;;;;;28.25;nan;94556.16;4989089;28;20041;-71
2021/08/05 08:56:16;;;;;;;7.80;5.70;;;;;;;28.26;nan;94551.38;4988866;28;20018;-71
2021/08/05 08:58:42;;;;;;;8.43;5.50;;;;;;;28.27;nan;94547.38;4973317;28;20072;-71
2021/08/05 09:01:09;;;;;;;9.15;5.85;;;;;;;28.29;nan;94544.78;4985689;28;20022;-70
2021/08/05 09:03:34;;;;;;;9.50;5.50;;;;;;;28.29;nan;94544.78;4971804;28;20046;-70
2021/08/05 09:06:00;;;;;;;8.85;5.78;;;;;;;28.27;nan;94548.09;4978945;28;20742;-71
2021/08/05 09:08:25;;;;;;;8.77;5.78;;;;;;;28.05;nan;94548.09;4970311;28;20252;-72
2021/08/05 09:10:54;;;;;;;9.98;5.60;;;;;;;27.74;nan;94545.91;4971701;28;20033;-70
2021/08/05 09:13:20;;;;;;;10.07;6.25;;;;;;;27.51;nan;94533.50;4980185;28;20034;-71
2021/08/05 09:15:46;;;;;;;7.72;5.78;;;;;;;27.30;nan;94530.88;4971954;28;20418;-71
2021/08/05 09:18:31;;;;;;;9.32;5.57;;;;;;;27.18;nan;94523.53;4959010;28;20041;-71
2021/08/05 09:21:05;;;;;;;9.32;5.25;;;;;;;27.06;nan;94511.47;4975055;28;20425;-71
2021/08/05 09:23:54;;;;;;;8.77;5.40;;;;;;;26.72;nan;94499.28;4968382;28;20026;-71
2021/08/05 09:26:24;;;;;;;8.23;6.05;;;;;;;26.57;nan;94504.00;4972183;28;20023;-71
2021/08/05 09:29:02;;;;;;;7.47;5.57;;;;;;;26.51;nan;94495.19;4969296;28;20181;-71
2021/08/05 09:31:28;;;;;;;7.63;5.50;;;;;;;26.57;nan;94493.03;4967714;28;20048;-71
2021/08/05 09:34:00;;;;;;;8.40;5.90;;;;;;;26.60;nan;94492.66;4976657;28;20030;-71
2021/08/05 09:36:27;;;;;;;7.95;5.78;;;;;;;26.66;nan;94484.31;4975587;28;20023;-69
2021/08/05 09:38:53;;;;;;;9.18;6.13;;;;;;;26.77;nan;94484.72;4979469;28;20026;-70
2021/08/05 09:41:18;;;;;;;9.13;5.70;;;;;;;26.94;nan;94476.72;4982325;28;20030;-71
2021/08/05 09:43:44;;;;;;;9.48;5.75;;;;;;;27.09;nan;94477.47;4976695;28;20026;-69
2021/08/05 09:46:12;;;;;;;8.95;5.70;;;;;;;27.26;nan;94469.44;4974270;28;20034;-70
2021/08/05 09:48:42;;;;;;;8.32;5.93;;;;;;;27.36;nan;94462.16;4978729;28;20108;-70
2021/08/05 09:51:17;;;;;;;7.53;5.32;;;;;;;27.46;nan;94471.28;4966920;28;20037;-71
2021/08/05 09:53:55;;;;;;;7.93;5.50;;;;;;;27.52;nan;94469.09;4967530;28;20030;-70
2021/08/05 09:56:21;;;;;;;7.95;5.70;;;;;;;27.59;nan;94457.41;4975031;28;20149;-70
2021/08/05 09:58:48;;;;;;;9.30;5.47;;;;;;;27.65;nan;94455.19;4970106;28;20031;-69
2021/08/05 10:01:13;;;;;;;7.00;5.35;;;;;;;27.69;nan;94444.59;4969163;28;20030;-70
2021/08/05 10:03:39;;;;;;;8.15;6.25;;;;;;;27.72;nan;94435.97;4965548;28;20473;-70
2021/08/05 10:06:07;;;;;;;6.90;5.32;;;;;;;27.77;nan;94429.56;4971174;28;20031;-71
2021/08/05 10:08:36;;;;;;;7.32;5.35;;;;;;;27.82;nan;94432.13;4972266;28;20033;-72
2021/08/05 10:11:02;;;;;;;7.72;5.05;;;;;;;27.85;nan;94425.53;4977016;28;20042;-71
2021/08/05 10:13:28;;;;;;;7.68;5.50;;;;;;;27.87;nan;94417.47;4970885;28;20421;-71
2021/08/05 10:15:56;;;;;;;7.45;5.90;;;;;;;27.97;nan;94410.13;4970812;28;20026;-71
2021/08/05 10:18:24;;;;;;;7.72;5.20;;;;;;;28.00;nan;94408.28;4978554;28;20033;-73
2021/08/05 10:20:49;;;;;;;7.55;5.30;;;;;;;28.04;nan;94409.38;4957612;28;20532;-72
2021/08/05 10:23:15;;;;;;;10.20;5.20;;;;;;;28.10;nan;94407.19;4980489;28;20031;-75
2021/08/05 10:25:40;;;;;;;6.63;4.57;;;;;;;28.14;nan;94402.03;4956060;28;20030;-74
2021/08/05 10:28:06;;;;;;;8.52;5.38;;;;;;;28.18;nan;94399.66;4964319;28;20089;-70
2021/08/05 10:30:32;;;;;;;8.13;4.82;;;;;;;28.22;nan;94397.25;4975920;28;20027;-70
2021/08/05 10:32:57;;;;;;;7.93;5.50;;;;;;;28.22;nan;94391.75;4969961;28;20608;-70
2021/08/05 10:35:23;;;;;;;6.80;5.25;;;;;;;28.23;nan;94382.22;4978345;28;20027;-70
2021/08/05 10:37:49;;;;;;;7.85;5.07;;;;;;;28.27;nan;94371.59;4969303;28;20034;-70
2021/08/05 10:40:15;;;;;;;7.07;5.00;;;;;;;28.26;nan;94381.09;4970551;28;20026;-70
2021/08/05 10:42:44;;;;;;;8.70;5.30;;;;;;;28.23;nan;94377.44;4970782;28;20089;-70
2021/08/05 10:45:10;;;;;;;6.53;4.60;;;;;;;28.22;nan;94366.28;4972907;28;20058;-69
2021/08/05 10:47:36;;;;;;;8.75;5.00;;;;;;;28.17;nan;94362.47;4970943;28;20409;-70
2021/08/05 10:50:03;;;;;;;6.93;4.85;;;;;;;28.13;nan;94361.41;4968872;28;20045;-69
2021/08/05 10:52:49;;;;;;;8.07;4.90;;;;;;;28.04;nan;94354.47;4969975;28;20053;-70
2021/08/05 10:55:17;;;;;;;6.63;4.80;;;;;;;27.97;nan;94349.72;4975569;28;20046;-70
2021/08/05 10:57:44;;;;;;;7.38;4.80;;;;;;;27.93;nan;94343.88;4987876;28;20037;-70
2021/08/05 11:00:14;;;;;;;5.90;4.50;;;;;;;27.90;nan;94339.50;4967375;28;20038;-70
2021/08/05 11:02:53;;;;;;;7.43;4.97;;;;;;;27.83;nan;94329.31;4986034;28;20041;-70
2021/08/05 11:05:21;;;;;;;6.63;4.47;;;;;;;27.82;nan;94329.84;4980075;28;20429;-70
2021/08/05 11:07:47;;;;;;;6.15;4.70;;;;;;;27.79;nan;94328.22;4986532;28;20041;-70
2021/08/05 11:10:16;;;;;;;8.88;5.20;;;;;;;27.73;nan;94320.19;4985357;28;20100;-70
2021/08/05 11:12:49;;;;;;;7.35;5.40;;;;;;;27.64;nan;94311.06;4978341;28;20027;-70
2021/08/05 11:15:26;;;;;;;7.50;5.00;;;;;;;27.45;nan;94297.03;4987435;28;20084;-69
2021/08/05 11:18:09;;;;;;;7.38;5.03;;;;;;;27.27;nan;94289.94;4980296;28;20062;-70
2021/08/05 11:20:41;;;;;;;6.53;4.82;;;;;;;27.04;nan;94294.75;4969434;28;20039;-70
2021/08/05 11:23:07;;;;;;;7.03;5.38;;;;;;;26.85;nan;94272.44;4984302;28;20121;-70
2021/08/05 11:25:57;;;;;;;6.40;5.07;;;;;;;26.72;nan;94273.91;4968885;28;20125;-69
2021/08/05 11:28:25;;;;;;;7.53;4.95;;;;;;;26.58;nan;94286.34;4968456;28;20037;-70
2021/08/05 11:30:54;;;;;;;6.55;4.78;;;;;;;26.43;nan;94281.59;4968035;28;20039;-70
2021/08/05 11:36:26;;;;;;;6.45;4.80;;;;;;;26.13;nan;94249.94;4968048;28;20039;-70
2021/08/05 11:39:02;;;;;;;7.88;5.13;;;;;;;26.04;nan;94266.91;4975957;28;20132;-70
2021/08/05 11:41:52;;;;;;;7.38;5.60;;;;;;;26.07;nan;94250.13;4973368;28;20043;-70
2021/08/05 11:44:23;;;;;;;8.57;4.97;;;;;;;26.12;nan;94237.56;4972498;28;20038;-70
2021/08/05 11:47:14;;;;;;;6.28;4.47;;;;;;;26.22;nan;94233.72;4968017;28;20492;-70
2021/08/05 11:49:41;;;;;;;7.85;5.32;;;;;;;26.35;nan;94225.34;4968137;28;20173;-71